sensor_id;sensor_type;location;lat;lon;timestamp;P1;durP1;ratioP1;P2;durP2;ratioP2
46266;SDS011;31998;48.798;15.066;2022-10-04T00:00:25;3.80;;;1.10;;
46266;SDS011;31998;48.798;15.066;2022-10-04T00:02:52;5.60;;;1.10;;
46266;SDS011;31998;48.798;15.066;2022-10-04T00:05:22;3.47;;;1.50;;
46266;SDS011;31998;48.798;15.066;2022-10-04T00:07:51;1.03;;;0.90;;
46266;SDS011;31998;48.798;15.066;2022-10-04T00:10:21;3.90;;;1.43;;
46266;SDS011;31998;48.798;15.066;2022-10-04T00:12:51;1.47;;;1.37;;
46266;SDS011;31998;48.798;15.066;2022-10-04T00:15:22;2.93;;;1.57;;
46266;SDS011;31998;48.798;15.066;2022-10-04T00:18:04;2.40;;;0.97;;
46266;SDS011;31998;48.798;15.066;2022-10-04T00:23:24;4.77;;;1.03;;
46266;SDS011;31998;48.798;15.066;2022-10-04T00:25:54;1.13;;;1.10;;
46266;SDS011;31998;48.798;15.066;2022-10-04T00:30:52;1.17;;;1.10;;
46266;SDS011;31998;48.798;15.066;2022-10-04T00:42:04;2.07;;;1.30;;
46266;SDS011;31998;48.798;15.066;2022-10-04T00:44:45;2.27;;;1.17;;
46266;SDS011;31998;48.798;15.066;2022-10-04T00:49:56;1.20;;;1.10;;
46266;SDS011;31998;48.798;15.066;2022-10-04T00:52:31;4.20;;;1.20;;
46266;SDS011;31998;48.798;15.066;2022-10-04T00:55:05;4.30;;;2.27;;
46266;SDS011;31998;48.798;15.066;2022-10-04T00:57:34;4.10;;;1.70;;
46266;SDS011;31998;48.798;15.066;2022-10-04T01:00:03;5.90;;;0.77;;
46266;SDS011;31998;48.798;15.066;2022-10-04T01:02:34;1.50;;;1.40;;
46266;SDS011;31998;48.798;15.066;2022-10-04T01:08:12;2.97;;;1.20;;
46266;SDS011;31998;48.798;15.066;2022-10-04T01:10:49;4.50;;;2.30;;
46266;SDS011;31998;48.798;15.066;2022-10-04T01:16:08;0.77;;;0.77;;
46266;SDS011;31998;48.798;15.066;2022-10-04T01:18:38;6.70;;;0.97;;
46266;SDS011;31998;48.798;15.066;2022-10-04T01:21:07;2.00;;;0.90;;
46266;SDS011;31998;48.798;15.066;2022-10-04T01:23:45;2.27;;;0.90;;
46266;SDS011;31998;48.798;15.066;2022-10-04T01:28:57;1.07;;;0.90;;
46266;SDS011;31998;48.798;15.066;2022-10-04T01:31:26;0.87;;;0.87;;
46266;SDS011;31998;48.798;15.066;2022-10-04T01:33:56;2.90;;;0.83;;
46266;SDS011;31998;48.798;15.066;2022-10-04T01:36:23;7.13;;;1.10;;
46266;SDS011;31998;48.798;15.066;2022-10-04T01:38:49;5.30;;;1.00;;
46266;SDS011;31998;48.798;15.066;2022-10-04T01:41:16;3.20;;;1.40;;
46266;SDS011;31998;48.798;15.066;2022-10-04T01:43:46;2.77;;;0.63;;
46266;SDS011;31998;48.798;15.066;2022-10-04T01:46:29;1.30;;;1.20;;
46266;SDS011;31998;48.798;15.066;2022-10-04T01:48:59;5.13;;;1.00;;
46266;SDS011;31998;48.798;15.066;2022-10-04T01:51:56;0.90;;;0.90;;
46266;SDS011;31998;48.798;15.066;2022-10-04T01:54:32;4.63;;;1.10;;
46266;SDS011;31998;48.798;15.066;2022-10-04T01:57:26;3.13;;;0.90;;
46266;SDS011;31998;48.798;15.066;2022-10-04T02:00:00;1.57;;;0.80;;
46266;SDS011;31998;48.798;15.066;2022-10-04T02:05:23;5.17;;;1.40;;
46266;SDS011;31998;48.798;15.066;2022-10-04T02:08:06;4.00;;;1.00;;
46266;SDS011;31998;48.798;15.066;2022-10-04T02:10:35;3.43;;;1.03;;
46266;SDS011;31998;48.798;15.066;2022-10-04T02:13:06;2.00;;;0.70;;
46266;SDS011;31998;48.798;15.066;2022-10-04T02:15:34;2.93;;;0.90;;
46266;SDS011;31998;48.798;15.066;2022-10-04T02:18:04;0.87;;;0.87;;
46266;SDS011;31998;48.798;15.066;2022-10-04T02:20:37;5.07;;;0.90;;
46266;SDS011;31998;48.798;15.066;2022-10-04T02:23:04;2.37;;;0.93;;
46266;SDS011;31998;48.798;15.066;2022-10-04T02:25:31;2.93;;;1.60;;
46266;SDS011;31998;48.798;15.066;2022-10-04T02:27:56;5.80;;;1.40;;
46266;SDS011;31998;48.798;15.066;2022-10-04T02:30:22;1.33;;;0.90;;
46266;SDS011;31998;48.798;15.066;2022-10-04T02:32:50;9.00;;;1.40;;
46266;SDS011;31998;48.798;15.066;2022-10-04T02:35:25;2.83;;;1.60;;
46266;SDS011;31998;48.798;15.066;2022-10-04T02:38:04;2.53;;;0.90;;
46266;SDS011;31998;48.798;15.066;2022-10-04T02:40:38;2.37;;;1.23;;
46266;SDS011;31998;48.798;15.066;2022-10-04T02:43:16;0.80;;;0.80;;
46266;SDS011;31998;48.798;15.066;2022-10-04T02:48:52;2.93;;;0.93;;
46266;SDS011;31998;48.798;15.066;2022-10-04T02:53:47;0.93;;;0.67;;
46266;SDS011;31998;48.798;15.066;2022-10-04T02:56:17;1.37;;;1.30;;
46266;SDS011;31998;48.798;15.066;2022-10-04T02:58:44;0.90;;;0.90;;
46266;SDS011;31998;48.798;15.066;2022-10-04T03:01:15;3.47;;;1.00;;
46266;SDS011;31998;48.798;15.066;2022-10-04T03:03:52;1.93;;;0.70;;
46266;SDS011;31998;48.798;15.066;2022-10-04T03:06:20;1.87;;;0.90;;
46266;SDS011;31998;48.798;15.066;2022-10-04T03:08:49;0.93;;;0.93;;
46266;SDS011;31998;48.798;15.066;2022-10-04T03:11:19;3.10;;;0.80;;
46266;SDS011;31998;48.798;15.066;2022-10-04T03:13:49;2.63;;;0.73;;
46266;SDS011;31998;48.798;15.066;2022-10-04T03:16:20;0.83;;;0.83;;
46266;SDS011;31998;48.798;15.066;2022-10-04T03:18:46;2.70;;;1.10;;
46266;SDS011;31998;48.798;15.066;2022-10-04T03:21:14;2.30;;;1.17;;
46266;SDS011;31998;48.798;15.066;2022-10-04T03:23:42;2.50;;;1.20;;
46266;SDS011;31998;48.798;15.066;2022-10-04T03:26:29;0.87;;;0.87;;
46266;SDS011;31998;48.798;15.066;2022-10-04T03:29:04;5.60;;;1.20;;
46266;SDS011;31998;48.798;15.066;2022-10-04T03:31:35;8.27;;;0.87;;
46266;SDS011;31998;48.798;15.066;2022-10-04T03:34:05;1.60;;;0.90;;
46266;SDS011;31998;48.798;15.066;2022-10-04T03:36:46;5.03;;;1.53;;
46266;SDS011;31998;48.798;15.066;2022-10-04T03:39:18;9.37;;;1.57;;
46266;SDS011;31998;48.798;15.066;2022-10-04T03:41:58;4.97;;;1.90;;
46266;SDS011;31998;48.798;15.066;2022-10-04T03:44:28;21.83;;;3.83;;
46266;SDS011;31998;48.798;15.066;2022-10-04T03:46:55;3.10;;;2.20;;
46266;SDS011;31998;48.798;15.066;2022-10-04T03:49:24;8.53;;;1.67;;
46266;SDS011;31998;48.798;15.066;2022-10-04T03:51:56;1.90;;;1.30;;
46266;SDS011;31998;48.798;15.066;2022-10-04T03:54:24;3.87;;;1.20;;
46266;SDS011;31998;48.798;15.066;2022-10-04T03:56:52;6.20;;;1.47;;
46266;SDS011;31998;48.798;15.066;2022-10-04T03:59:19;1.27;;;1.20;;
46266;SDS011;31998;48.798;15.066;2022-10-04T04:01:49;3.97;;;1.40;;
46266;SDS011;31998;48.798;15.066;2022-10-04T04:04:42;1.70;;;1.00;;
46266;SDS011;31998;48.798;15.066;2022-10-04T04:07:16;6.83;;;1.53;;
46266;SDS011;31998;48.798;15.066;2022-10-04T04:15:27;2.20;;;0.90;;
46266;SDS011;31998;48.798;15.066;2022-10-04T04:17:55;2.13;;;1.00;;
46266;SDS011;31998;48.798;15.066;2022-10-04T04:20:38;5.87;;;1.70;;
46266;SDS011;31998;48.798;15.066;2022-10-04T04:25:36;1.57;;;1.23;;
46266;SDS011;31998;48.798;15.066;2022-10-04T04:28:25;3.80;;;1.27;;
46266;SDS011;31998;48.798;15.066;2022-10-04T04:30:58;4.73;;;1.50;;
46266;SDS011;31998;48.798;15.066;2022-10-04T04:33:31;0.80;;;0.70;;
46266;SDS011;31998;48.798;15.066;2022-10-04T04:36:13;3.33;;;1.30;;
46266;SDS011;31998;48.798;15.066;2022-10-04T04:38:39;1.20;;;1.10;;
46266;SDS011;31998;48.798;15.066;2022-10-04T04:41:25;1.90;;;1.33;;
46266;SDS011;31998;48.798;15.066;2022-10-04T04:43:53;1.10;;;1.00;;
46266;SDS011;31998;48.798;15.066;2022-10-04T04:46:19;2.93;;;1.33;;
46266;SDS011;31998;48.798;15.066;2022-10-04T04:48:46;3.70;;;1.40;;
46266;SDS011;31998;48.798;15.066;2022-10-04T04:51:18;4.83;;;1.17;;
46266;SDS011;31998;48.798;15.066;2022-10-04T04:53:46;2.47;;;1.00;;
46266;SDS011;31998;48.798;15.066;2022-10-04T04:56:15;3.67;;;1.00;;
46266;SDS011;31998;48.798;15.066;2022-10-04T04:58:44;1.33;;;1.23;;
46266;SDS011;31998;48.798;15.066;2022-10-04T05:01:25;9.50;;;1.73;;
46266;SDS011;31998;48.798;15.066;2022-10-04T05:06:37;11.70;;;1.50;;
46266;SDS011;31998;48.798;15.066;2022-10-04T05:09:04;3.30;;;1.40;;
46266;SDS011;31998;48.798;15.066;2022-10-04T05:11:34;1.17;;;1.10;;
46266;SDS011;31998;48.798;15.066;2022-10-04T05:14:05;3.33;;;1.00;;
46266;SDS011;31998;48.798;15.066;2022-10-04T05:19:30;1.93;;;1.07;;
46266;SDS011;31998;48.798;15.066;2022-10-04T05:22:01;0.80;;;0.80;;
46266;SDS011;31998;48.798;15.066;2022-10-04T05:24:39;2.40;;;1.30;;
46266;SDS011;31998;48.798;15.066;2022-10-04T05:27:16;1.20;;;1.13;;
46266;SDS011;31998;48.798;15.066;2022-10-04T05:33:12;2.20;;;1.10;;
46266;SDS011;31998;48.798;15.066;2022-10-04T05:38:38;2.47;;;1.00;;
46266;SDS011;31998;48.798;15.066;2022-10-04T05:41:29;2.10;;;1.00;;
46266;SDS011;31998;48.798;15.066;2022-10-04T05:44:00;2.80;;;1.40;;
46266;SDS011;31998;48.798;15.066;2022-10-04T05:46:29;11.60;;;3.80;;
46266;SDS011;31998;48.798;15.066;2022-10-04T05:49:05;2.33;;;1.50;;
46266;SDS011;31998;48.798;15.066;2022-10-04T05:51:33;3.07;;;1.40;;
46266;SDS011;31998;48.798;15.066;2022-10-04T05:54:11;4.83;;;1.03;;
46266;SDS011;31998;48.798;15.066;2022-10-04T05:59:36;5.23;;;1.23;;
46266;SDS011;31998;48.798;15.066;2022-10-04T06:05:40;4.83;;;1.30;;
46266;SDS011;31998;48.798;15.066;2022-10-04T06:24:15;5.63;;;1.00;;
46266;SDS011;31998;48.798;15.066;2022-10-04T06:27:32;2.30;;;1.07;;
46266;SDS011;31998;48.798;15.066;2022-10-04T06:30:00;2.93;;;1.47;;
46266;SDS011;31998;48.798;15.066;2022-10-04T07:00:19;3.90;;;0.93;;
46266;SDS011;31998;48.798;15.066;2022-10-04T07:13:56;3.57;;;1.27;;
46266;SDS011;31998;48.798;15.066;2022-10-04T07:21:55;3.17;;;1.07;;
46266;SDS011;31998;48.798;15.066;2022-10-04T07:27:55;4.57;;;1.10;;
46266;SDS011;31998;48.798;15.066;2022-10-04T07:30:14;10.80;;;1.37;;
46266;SDS011;31998;48.798;15.066;2022-10-04T07:32:44;1.73;;;1.20;;
46266;SDS011;31998;48.798;15.066;2022-10-04T07:35:29;12.00;;;1.13;;
46266;SDS011;31998;48.798;15.066;2022-10-04T07:38:09;3.17;;;0.97;;
46266;SDS011;31998;48.798;15.066;2022-10-04T07:43:24;1.30;;;1.20;;
46266;SDS011;31998;48.798;15.066;2022-10-04T07:46:00;3.20;;;1.20;;
46266;SDS011;31998;48.798;15.066;2022-10-04T07:48:39;3.37;;;1.27;;
46266;SDS011;31998;48.798;15.066;2022-10-04T07:51:18;5.93;;;1.13;;
46266;SDS011;31998;48.798;15.066;2022-10-04T08:05:18;5.27;;;1.57;;
46266;SDS011;31998;48.798;15.066;2022-10-04T08:07:50;4.53;;;1.83;;
46266;SDS011;31998;48.798;15.066;2022-10-04T08:16:17;1.97;;;1.20;;
46266;SDS011;31998;48.798;15.066;2022-10-04T08:22:17;7.00;;;1.77;;
46266;SDS011;31998;48.798;15.066;2022-10-04T08:27:48;3.10;;;2.33;;
46266;SDS011;31998;48.798;15.066;2022-10-04T08:31:02;5.00;;;1.37;;
46266;SDS011;31998;48.798;15.066;2022-10-04T08:33:43;3.23;;;1.30;;
46266;SDS011;31998;48.798;15.066;2022-10-04T08:36:16;2.20;;;1.10;;
46266;SDS011;31998;48.798;15.066;2022-10-04T08:38:55;3.53;;;1.63;;
46266;SDS011;31998;48.798;15.066;2022-10-04T08:53:28;2.10;;;1.80;;
46266;SDS011;31998;48.798;15.066;2022-10-04T08:59:05;2.40;;;1.63;;
46266;SDS011;31998;48.798;15.066;2022-10-04T09:01:59;3.47;;;1.40;;
46266;SDS011;31998;48.798;15.066;2022-10-04T09:16:16;4.53;;;1.17;;
46266;SDS011;31998;48.798;15.066;2022-10-04T09:32:44;4.20;;;2.03;;
46266;SDS011;31998;48.798;15.066;2022-10-04T09:52:43;3.63;;;1.73;;
46266;SDS011;31998;48.798;15.066;2022-10-04T09:58:38;3.00;;;1.33;;
46266;SDS011;31998;48.798;15.066;2022-10-04T10:09:30;1.20;;;1.13;;
46266;SDS011;31998;48.798;15.066;2022-10-04T10:15:29;4.30;;;1.17;;
46266;SDS011;31998;48.798;15.066;2022-10-04T10:20:58;1.97;;;1.50;;
46266;SDS011;31998;48.798;15.066;2022-10-04T10:34:47;2.43;;;1.27;;
46266;SDS011;31998;48.798;15.066;2022-10-04T10:57:04;3.33;;;1.83;;
46266;SDS011;31998;48.798;15.066;2022-10-04T10:59:37;2.00;;;1.50;;
46266;SDS011;31998;48.798;15.066;2022-10-04T11:08:18;7.10;;;1.77;;
46266;SDS011;31998;48.798;15.066;2022-10-04T11:13:49;2.03;;;1.90;;
46266;SDS011;31998;48.798;15.066;2022-10-04T11:42:48;2.50;;;2.00;;
46266;SDS011;31998;48.798;15.066;2022-10-04T11:57:15;1.23;;;1.17;;
46266;SDS011;31998;48.798;15.066;2022-10-04T11:59:42;1.37;;;1.20;;
46266;SDS011;31998;48.798;15.066;2022-10-04T12:16:21;1.47;;;1.00;;
46266;SDS011;31998;48.798;15.066;2022-10-04T12:27:36;3.70;;;1.47;;
46266;SDS011;31998;48.798;15.066;2022-10-04T12:30:35;2.33;;;1.87;;
46266;SDS011;31998;48.798;15.066;2022-10-04T12:52:17;1.50;;;1.40;;
46266;SDS011;31998;48.798;15.066;2022-10-04T12:57:49;1.23;;;0.90;;
46266;SDS011;31998;48.798;15.066;2022-10-04T13:00:23;1.60;;;1.17;;
46266;SDS011;31998;48.798;15.066;2022-10-04T13:05:36;1.30;;;1.20;;
46266;SDS011;31998;48.798;15.066;2022-10-04T13:16:10;1.80;;;1.70;;
46266;SDS011;31998;48.798;15.066;2022-10-04T13:26:45;5.57;;;1.20;;
46266;SDS011;31998;48.798;15.066;2022-10-04T13:32:29;1.63;;;1.53;;
46266;SDS011;31998;48.798;15.066;2022-10-04T13:46:05;1.37;;;1.37;;
46266;SDS011;31998;48.798;15.066;2022-10-04T13:51:31;3.00;;;1.80;;
46266;SDS011;31998;48.798;15.066;2022-10-04T13:54:10;5.07;;;2.23;;
46266;SDS011;31998;48.798;15.066;2022-10-04T13:57:31;3.07;;;1.43;;
46266;SDS011;31998;48.798;15.066;2022-10-04T14:00:10;1.47;;;1.37;;
46266;SDS011;31998;48.798;15.066;2022-10-04T14:36:56;9.57;;;2.90;;
46266;SDS011;31998;48.798;15.066;2022-10-04T14:45:35;1.90;;;1.80;;
46266;SDS011;31998;48.798;15.066;2022-10-04T14:59:36;6.93;;;1.17;;
46266;SDS011;31998;48.798;15.066;2022-10-04T15:02:12;3.03;;;2.70;;
46266;SDS011;31998;48.798;15.066;2022-10-04T15:07:44;1.40;;;1.07;;
46266;SDS011;31998;48.798;15.066;2022-10-04T15:10:17;1.03;;;0.70;;
46266;SDS011;31998;48.798;15.066;2022-10-04T15:18:35;1.00;;;0.90;;
46266;SDS011;31998;48.798;15.066;2022-10-04T15:21:11;2.50;;;1.60;;
46266;SDS011;31998;48.798;15.066;2022-10-04T15:23:58;6.07;;;3.10;;
46266;SDS011;31998;48.798;15.066;2022-10-04T15:37:42;1.13;;;1.00;;
46266;SDS011;31998;48.798;15.066;2022-10-04T15:59:44;2.40;;;1.13;;
46266;SDS011;31998;48.798;15.066;2022-10-04T16:24:41;1.60;;;1.50;;
46266;SDS011;31998;48.798;15.066;2022-10-04T16:30:26;7.63;;;1.50;;
46266;SDS011;31998;48.798;15.066;2022-10-04T16:35:32;7.97;;;1.60;;
46266;SDS011;31998;48.798;15.066;2022-10-04T16:38:03;3.07;;;1.00;;
46266;SDS011;31998;48.798;15.066;2022-10-04T16:45:43;12.43;;;1.23;;
46266;SDS011;31998;48.798;15.066;2022-10-04T16:56:08;2.00;;;1.00;;
46266;SDS011;31998;48.798;15.066;2022-10-04T16:58:56;6.93;;;1.57;;
46266;SDS011;31998;48.798;15.066;2022-10-04T17:20:25;1.93;;;1.50;;
46266;SDS011;31998;48.798;15.066;2022-10-04T17:26:02;3.53;;;1.03;;
46266;SDS011;31998;48.798;15.066;2022-10-04T17:31:37;1.20;;;1.10;;
46266;SDS011;31998;48.798;15.066;2022-10-04T17:34:10;2.20;;;0.70;;
46266;SDS011;31998;48.798;15.066;2022-10-04T17:36:49;4.27;;;0.60;;
46266;SDS011;31998;48.798;15.066;2022-10-04T17:42:18;2.30;;;0.97;;
46266;SDS011;31998;48.798;15.066;2022-10-04T17:45:06;1.00;;;1.00;;
46266;SDS011;31998;48.798;15.066;2022-10-04T17:47:53;0.70;;;0.70;;
46266;SDS011;31998;48.798;15.066;2022-10-04T17:54:08;0.90;;;0.70;;
46266;SDS011;31998;48.798;15.066;2022-10-04T17:59:37;3.30;;;0.77;;
46266;SDS011;31998;48.798;15.066;2022-10-04T18:05:16;1.37;;;1.27;;
46266;SDS011;31998;48.798;15.066;2022-10-04T18:10:31;1.10;;;0.90;;
46266;SDS011;31998;48.798;15.066;2022-10-04T18:13:06;1.47;;;1.47;;
46266;SDS011;31998;48.798;15.066;2022-10-04T18:18:55;7.03;;;0.87;;
46266;SDS011;31998;48.798;15.066;2022-10-04T18:21:26;1.37;;;0.90;;
46266;SDS011;31998;48.798;15.066;2022-10-04T18:23:59;24.53;;;1.53;;
46266;SDS011;31998;48.798;15.066;2022-10-04T18:29:42;7.57;;;1.40;;
46266;SDS011;31998;48.798;15.066;2022-10-04T18:34:56;3.03;;;1.93;;
46266;SDS011;31998;48.798;15.066;2022-10-04T18:37:33;1.70;;;1.60;;
46266;SDS011;31998;48.798;15.066;2022-10-04T18:42:41;5.60;;;1.87;;
46266;SDS011;31998;48.798;15.066;2022-10-04T18:47:46;0.73;;;0.73;;
46266;SDS011;31998;48.798;15.066;2022-10-04T18:50:34;3.70;;;0.63;;
46266;SDS011;31998;48.798;15.066;2022-10-04T18:55:58;1.17;;;1.07;;
46266;SDS011;31998;48.798;15.066;2022-10-04T19:04:43;2.40;;;1.50;;
46266;SDS011;31998;48.798;15.066;2022-10-04T19:07:14;1.30;;;1.20;;
46266;SDS011;31998;48.798;15.066;2022-10-04T19:12:23;5.13;;;1.07;;
46266;SDS011;31998;48.798;15.066;2022-10-04T19:17:40;1.07;;;1.07;;
46266;SDS011;31998;48.798;15.066;2022-10-04T19:20:27;23.00;;;2.03;;
46266;SDS011;31998;48.798;15.066;2022-10-04T19:23:16;4.63;;;1.07;;
46266;SDS011;31998;48.798;15.066;2022-10-04T19:25:52;2.67;;;1.10;;
46266;SDS011;31998;48.798;15.066;2022-10-04T19:28:22;5.50;;;1.80;;
46266;SDS011;31998;48.798;15.066;2022-10-04T19:33:55;3.40;;;1.60;;
46266;SDS011;31998;48.798;15.066;2022-10-04T19:36:28;10.83;;;1.80;;
46266;SDS011;31998;48.798;15.066;2022-10-04T19:41:53;0.90;;;0.90;;
46266;SDS011;31998;48.798;15.066;2022-10-04T19:44:47;1.10;;;0.97;;
46266;SDS011;31998;48.798;15.066;2022-10-04T19:50:22;5.20;;;0.80;;
46266;SDS011;31998;48.798;15.066;2022-10-04T19:53:04;4.60;;;1.00;;
46266;SDS011;31998;48.798;15.066;2022-10-04T19:55:56;3.83;;;1.20;;
46266;SDS011;31998;48.798;15.066;2022-10-04T20:00:51;6.53;;;0.80;;
46266;SDS011;31998;48.798;15.066;2022-10-04T20:03:20;1.40;;;1.13;;
46266;SDS011;31998;48.798;15.066;2022-10-04T20:05:46;1.17;;;0.80;;
46266;SDS011;31998;48.798;15.066;2022-10-04T20:08:14;5.50;;;1.33;;
46266;SDS011;31998;48.798;15.066;2022-10-04T20:11:11;1.63;;;1.53;;
46266;SDS011;31998;48.798;15.066;2022-10-04T20:13:37;2.87;;;1.90;;
46266;SDS011;31998;48.798;15.066;2022-10-04T20:16:03;2.07;;;1.87;;
46266;SDS011;31998;48.798;15.066;2022-10-04T20:26:01;6.77;;;3.70;;
46266;SDS011;31998;48.798;15.066;2022-10-04T20:29:07;7.87;;;4.20;;
46266;SDS011;31998;48.798;15.066;2022-10-04T20:36:54;5.37;;;1.90;;
46266;SDS011;31998;48.798;15.066;2022-10-04T20:50:19;4.87;;;4.30;;
46266;SDS011;31998;48.798;15.066;2022-10-04T20:52:49;9.63;;;4.30;;
46266;SDS011;31998;48.798;15.066;2022-10-04T20:57:42;6.83;;;5.13;;
46266;SDS011;31998;48.798;15.066;2022-10-04T21:00:18;5.70;;;4.30;;
46266;SDS011;31998;48.798;15.066;2022-10-04T21:02:45;4.97;;;4.47;;
46266;SDS011;31998;48.798;15.066;2022-10-04T21:05:28;17.47;;;3.20;;
46266;SDS011;31998;48.798;15.066;2022-10-04T21:08:19;8.40;;;3.70;;
46266;SDS011;31998;48.798;15.066;2022-10-04T21:11:00;3.40;;;2.90;;
46266;SDS011;31998;48.798;15.066;2022-10-04T21:13:40;4.83;;;2.30;;
46266;SDS011;31998;48.798;15.066;2022-10-04T21:16:07;2.70;;;2.50;;
46266;SDS011;31998;48.798;15.066;2022-10-04T21:18:33;4.10;;;2.40;;
46266;SDS011;31998;48.798;15.066;2022-10-04T21:20:58;2.40;;;2.10;;
46266;SDS011;31998;48.798;15.066;2022-10-04T21:23:27;2.40;;;1.87;;
46266;SDS011;31998;48.798;15.066;2022-10-04T21:26:16;2.03;;;1.93;;
46266;SDS011;31998;48.798;15.066;2022-10-04T21:28:51;28.33;;;2.30;;
46266;SDS011;31998;48.798;15.066;2022-10-04T21:31:18;2.40;;;1.60;;
46266;SDS011;31998;48.798;15.066;2022-10-04T21:33:43;2.13;;;1.63;;
46266;SDS011;31998;48.798;15.066;2022-10-04T21:36:08;1.73;;;1.63;;
46266;SDS011;31998;48.798;15.066;2022-10-04T21:38:34;8.90;;;1.90;;
46266;SDS011;31998;48.798;15.066;2022-10-04T21:40:59;1.87;;;1.77;;
46266;SDS011;31998;48.798;15.066;2022-10-04T21:43:25;7.53;;;3.00;;
46266;SDS011;31998;48.798;15.066;2022-10-04T21:45:51;5.40;;;2.60;;
46266;SDS011;31998;48.798;15.066;2022-10-04T21:48:17;14.30;;;1.80;;
46266;SDS011;31998;48.798;15.066;2022-10-04T21:50:45;8.10;;;2.37;;
46266;SDS011;31998;48.798;15.066;2022-10-04T21:53:11;4.43;;;1.60;;
46266;SDS011;31998;48.798;15.066;2022-10-04T21:55:37;8.43;;;2.63;;
46266;SDS011;31998;48.798;15.066;2022-10-04T21:58:03;6.07;;;1.67;;
46266;SDS011;31998;48.798;15.066;2022-10-04T22:00:28;6.10;;;1.80;;
46266;SDS011;31998;48.798;15.066;2022-10-04T22:02:54;5.57;;;2.00;;
46266;SDS011;31998;48.798;15.066;2022-10-04T22:05:19;7.67;;;2.60;;
46266;SDS011;31998;48.798;15.066;2022-10-04T22:07:44;13.10;;;3.97;;
46266;SDS011;31998;48.798;15.066;2022-10-04T22:10:10;2.07;;;1.97;;
46266;SDS011;31998;48.798;15.066;2022-10-04T22:12:36;1.47;;;1.47;;
46266;SDS011;31998;48.798;15.066;2022-10-04T22:15:01;6.80;;;1.33;;
46266;SDS011;31998;48.798;15.066;2022-10-04T22:17:27;10.57;;;2.20;;
46266;SDS011;31998;48.798;15.066;2022-10-04T22:19:52;3.40;;;1.73;;
46266;SDS011;31998;48.798;15.066;2022-10-04T22:22:18;4.77;;;2.20;;
46266;SDS011;31998;48.798;15.066;2022-10-04T22:24:43;2.13;;;2.00;;
46266;SDS011;31998;48.798;15.066;2022-10-04T22:27:17;11.33;;;3.17;;
46266;SDS011;31998;48.798;15.066;2022-10-04T22:29:43;2.77;;;2.57;;
46266;SDS011;31998;48.798;15.066;2022-10-04T22:32:27;2.23;;;2.13;;
46266;SDS011;31998;48.798;15.066;2022-10-04T22:34:59;4.53;;;1.77;;
46266;SDS011;31998;48.798;15.066;2022-10-04T22:37:34;3.23;;;2.03;;
46266;SDS011;31998;48.798;15.066;2022-10-04T22:39:59;11.87;;;1.90;;
46266;SDS011;31998;48.798;15.066;2022-10-04T22:42:27;4.43;;;2.07;;
46266;SDS011;31998;48.798;15.066;2022-10-04T22:44:55;4.00;;;2.17;;
46266;SDS011;31998;48.798;15.066;2022-10-04T22:47:24;3.67;;;1.87;;
46266;SDS011;31998;48.798;15.066;2022-10-04T22:49:51;1.90;;;1.80;;
46266;SDS011;31998;48.798;15.066;2022-10-04T22:52:18;2.93;;;1.90;;
46266;SDS011;31998;48.798;15.066;2022-10-04T22:54:49;2.20;;;1.50;;
46266;SDS011;31998;48.798;15.066;2022-10-04T22:57:19;1.67;;;1.67;;
46266;SDS011;31998;48.798;15.066;2022-10-04T22:59:49;1.80;;;1.70;;
46266;SDS011;31998;48.798;15.066;2022-10-04T23:02:19;2.50;;;1.30;;
46266;SDS011;31998;48.798;15.066;2022-10-04T23:04:54;5.40;;;1.80;;
46266;SDS011;31998;48.798;15.066;2022-10-04T23:07:22;1.50;;;1.50;;
46266;SDS011;31998;48.798;15.066;2022-10-04T23:09:48;2.27;;;2.13;;
46266;SDS011;31998;48.798;15.066;2022-10-04T23:12:13;148.57;;;4.20;;
46266;SDS011;31998;48.798;15.066;2022-10-04T23:14:39;2.23;;;1.20;;
46266;SDS011;31998;48.798;15.066;2022-10-04T23:17:27;3.30;;;1.50;;
46266;SDS011;31998;48.798;15.066;2022-10-04T23:19:53;1.93;;;1.93;;
46266;SDS011;31998;48.798;15.066;2022-10-04T23:22:24;1.80;;;1.70;;
46266;SDS011;31998;48.798;15.066;2022-10-04T23:24:51;1.57;;;1.37;;
46266;SDS011;31998;48.798;15.066;2022-10-04T23:27:18;4.40;;;1.67;;
46266;SDS011;31998;48.798;15.066;2022-10-04T23:29:47;1.97;;;1.87;;
46266;SDS011;31998;48.798;15.066;2022-10-04T23:32:23;1.37;;;1.37;;
46266;SDS011;31998;48.798;15.066;2022-10-04T23:34:49;2.67;;;1.67;;
46266;SDS011;31998;48.798;15.066;2022-10-04T23:37:19;4.73;;;2.20;;
46266;SDS011;31998;48.798;15.066;2022-10-04T23:39:48;1.83;;;1.83;;
46266;SDS011;31998;48.798;15.066;2022-10-04T23:42:18;4.37;;;2.40;;
46266;SDS011;31998;48.798;15.066;2022-10-04T23:44:46;7.83;;;2.73;;
46266;SDS011;31998;48.798;15.066;2022-10-04T23:47:14;2.60;;;2.47;;
46266;SDS011;31998;48.798;15.066;2022-10-04T23:49:41;3.07;;;2.87;;
46266;SDS011;31998;48.798;15.066;2022-10-04T23:52:09;3.00;;;2.20;;
46266;SDS011;31998;48.798;15.066;2022-10-04T23:54:42;3.40;;;2.10;;
46266;SDS011;31998;48.798;15.066;2022-10-04T23:57:08;2.00;;;1.90;;
46266;SDS011;31998;48.798;15.066;2022-10-04T23:59:38;4.03;;;1.60;;
